Time;durP1;ratioP1;P1;durP2;ratioP2;P2;SDS_P1;SDS_P2;PMS_P1;PMS_P2;Temp;Humidity;BMP_temperature;BMP_pressure;BME280_temperature;BME280_humidity;BME280_pressure;Samples;Min_cycle;Max_cycle;Signal;HPM_P1;HPM_P2
2022/10/12 00:00:49;;;;;;;12.10;7.93;;;;;;;10.80;82.72;98903.25;5077860;28;20032;-86
2022/10/12 00:03:15;;;;;;;13.05;7.43;;;;;;;10.83;83.20;98905.50;5083357;28;20085;-86
2022/10/12 00:05:41;;;;;;;17.73;8.07;;;;;;;10.80;82.59;98898.81;5079878;28;20032;-86
2022/10/12 00:08:06;;;;;;;12.20;8.25;;;;;;;10.76;82.68;98900.16;5079862;28;20445;-85
2022/10/12 00:10:32;;;;;;;14.32;8.73;;;;;;;10.74;83.29;98898.72;5080682;28;20557;-85
2022/10/12 00:12:59;;;;;;;11.55;8.00;;;;;;;10.80;83.44;98893.56;5084405;28;20116;-86
2022/10/12 00:15:25;;;;;;;10.93;7.50;;;;;;;10.91;82.91;98893.09;5079011;28;20478;-86
2022/10/12 00:17:52;;;;;;;12.98;8.63;;;;;;;11.02;82.57;98893.63;5087066;28;20107;-86
2022/10/12 00:20:18;;;;;;;12.20;8.27;;;;;;;11.06;82.10;98890.47;5081023;28;20554;-86
2022/10/12 00:22:43;;;;;;;12.05;8.32;;;;;;;11.13;81.96;98893.97;5074019;28;20112;-86
2022/10/12 00:25:08;;;;;;;15.38;8.18;;;;;;;11.11;82.21;98895.16;5080235;28;20036;-85
2022/10/12 00:27:34;;;;;;;13.98;8.18;;;;;;;10.89;81.97;98896.91;5071948;28;20032;-86
2022/10/12 00:30:00;;;;;;;14.18;7.65;;;;;;;10.71;82.51;98895.44;5079088;28;20036;-86
2022/10/12 00:32:26;;;;;;;13.93;8.50;;;;;;;10.64;83.61;98893.75;5078272;28;20086;-86
2022/10/12 00:34:52;;;;;;;11.77;8.48;;;;;;;10.51;83.06;98894.38;5079621;28;20032;-86
2022/10/12 00:37:17;;;;;;;11.65;8.25;;;;;;;10.48;84.00;98893.91;5086755;28;20039;-87
2022/10/12 00:39:43;;;;;;;14.88;9.10;;;;;;;10.53;84.27;98896.81;5088824;28;20043;-86
2022/10/12 00:42:11;;;;;;;12.05;7.93;;;;;;;10.51;84.07;98883.88;5084193;28;20161;-86
2022/10/12 00:44:44;;;;;;;14.38;7.93;;;;;;;10.56;84.09;98889.41;5075859;28;20483;-86
2022/10/12 00:47:24;;;;;;;12.95;8.23;;;;;;;10.60;84.61;98895.09;5085526;28;20040;-86
2022/10/12 00:50:29;;;;;;;10.27;7.82;;;;;;;10.63;83.73;98895.53;5079377;28;20674;-85
2022/10/12 00:53:13;;;;;;;15.05;7.95;;;;;;;10.56;84.35;98889.41;5079460;28;20111;-86
2022/10/12 00:55:56;;;;;;;11.35;7.82;;;;;;;10.42;84.29;98883.13;5085411;28;20067;-86
2022/10/12 00:58:23;;;;;;;12.90;8.27;;;;;;;10.47;84.92;98884.41;5077251;28;20087;-86
2022/10/12 01:00:50;;;;;;;15.80;8.57;;;;;;;10.40;85.20;98876.44;5080848;28;20093;-86
2022/10/12 01:03:20;;;;;;;13.57;8.60;;;;;;;10.33;85.32;98881.59;5081044;28;20518;-86
2022/10/12 01:05:46;;;;;;;16.67;9.20;;;;;;;10.22;85.33;98884.59;5084695;28;20039;-86
2022/10/12 01:08:12;;;;;;;14.45;8.20;;;;;;;10.26;85.63;98895.59;5084528;28;20062;-87
2022/10/12 01:10:37;;;;;;;13.20;8.98;;;;;;;10.18;86.06;98888.56;5077100;28;20113;-87
2022/10/12 01:13:04;;;;;;;13.93;8.50;;;;;;;10.25;86.99;98894.75;5084198;28;20052;-86
2022/10/12 01:15:38;;;;;;;13.35;8.73;;;;;;;10.17;86.42;98884.31;5083355;28;20093;-86
2022/10/12 01:18:28;;;;;;;15.73;9.07;;;;;;;10.24;85.77;98887.06;5090544;28;20040;-87
2022/10/12 01:21:31;;;;;;;12.93;9.07;;;;;;;10.22;85.91;98884.59;5078829;28;20044;-87
2022/10/12 01:24:36;;;;;;;15.20;8.80;;;;;;;10.19;85.70;98895.44;5080808;28;20115;-87
2022/10/12 01:27:10;;;;;;;12.88;8.80;;;;;;;10.10;86.01;98892.09;5090858;28;20487;-86
2022/10/12 01:30:34;;;;;;;12.27;8.77;;;;;;;10.03;85.79;98882.50;5078551;28;20067;-86
2022/10/12 01:33:31;;;;;;;15.32;8.98;;;;;;;9.96;86.06;98882.38;5078610;28;20605;-86
2022/10/12 01:36:07;;;;;;;13.23;9.63;;;;;;;9.92;86.25;98884.53;5089229;28;20032;-87
2022/10/12 01:38:44;;;;;;;13.80;8.43;;;;;;;9.85;86.60;98883.59;5090390;28;20117;-86
2022/10/12 01:41:25;;;;;;;13.30;8.50;;;;;;;9.84;86.57;98881.97;5088714;28;20043;-86
2022/10/12 01:43:51;;;;;;;13.68;8.50;;;;;;;9.74;86.89;98886.63;5084164;28;20158;-86
2022/10/12 01:46:17;;;;;;;15.55;8.90;;;;;;;9.69;87.05;98888.97;5086300;28;20044;-86
2022/10/12 01:48:45;;;;;;;14.27;9.32;;;;;;;9.58;87.61;98886.75;5092769;28;20036;-87
2022/10/12 01:51:23;;;;;;;17.17;8.40;;;;;;;9.53;88.37;98894.28;5085099;28;20059;-86
2022/10/12 01:54:21;;;;;;;14.07;8.75;;;;;;;9.45;88.60;98884.69;5085705;28;20033;-86
2022/10/12 01:57:05;;;;;;;14.88;9.40;;;;;;;9.36;89.33;98886.56;5084164;28;20063;-86
2022/10/12 02:00:00;;;;;;;15.23;8.95;;;;;;;9.31;89.58;98881.00;5098012;28;20815;-86
2022/10/12 02:02:54;;;;;;;15.05;8.95;;;;;;;9.39;89.60;98870.50;5083380;28;20039;-86
2022/10/12 02:05:34;;;;;;;14.95;9.98;;;;;;;9.43;88.68;98873.59;5084449;28;20718;-86
2022/10/12 02:08:37;;;;;;;14.32;9.00;;;;;;;9.34;88.80;98870.19;5081134;28;20028;-86
2022/10/12 02:11:09;;;;;;;15.90;9.68;;;;;;;9.32;88.71;98881.84;5077540;28;20045;-86
2022/10/12 02:13:43;;;;;;;17.60;9.77;;;;;;;9.27;89.18;98878.91;5073089;28;20049;-87
2022/10/12 02:16:16;;;;;;;15.55;9.27;;;;;;;9.24;89.19;98874.84;5085171;28;20085;-86
2022/10/12 02:18:48;;;;;;;19.48;11.60;;;;;;;9.26;89.34;98872.84;5078708;28;20036;-86
2022/10/12 02:21:20;;;;;;;18.23;10.93;;;;;;;9.25;88.93;98871.22;5089881;28;20039;-86
2022/10/12 02:23:49;;;;;;;17.08;9.70;;;;;;;9.21;89.23;98869.94;5084024;28;20036;-86
2022/10/12 02:26:16;;;;;;;19.73;10.70;;;;;;;9.18;89.27;98870.28;5088769;28;20114;-87
2022/10/12 02:28:44;;;;;;;22.98;10.52;;;;;;;9.20;89.86;98867.50;5090738;28;20024;-86
2022/10/12 02:31:21;;;;;;;19.00;11.27;;;;;;;9.20;89.25;98857.03;5088962;28;20039;-86
2022/10/12 02:33:59;;;;;;;24.23;12.43;;;;;;;9.14;89.28;98863.75;5077033;28;20471;-87
2022/10/12 02:36:49;;;;;;;18.95;12.52;;;;;;;9.14;89.55;98863.75;5088843;28;20038;-87
2022/10/12 02:39:31;;;;;;;19.80;12.07;;;;;;;9.07;89.33;98853.16;5082600;28;20061;-86
2022/10/12 02:42:07;;;;;;;20.85;12.93;;;;;;;9.15;89.03;98859.34;5076721;28;20056;-87
2022/10/12 02:44:37;;;;;;;22.75;13.07;;;;;;;9.09;89.22;98860.84;5085163;28;20039;-87
2022/10/12 02:47:07;;;;;;;23.33;13.27;;;;;;;9.13;89.23;98866.56;5089511;28;20039;-87
2022/10/12 02:49:36;;;;;;;29.50;14.53;;;;;;;9.10;89.24;98857.22;5092481;28;20360;-87
2022/10/12 02:52:07;;;;;;;19.02;11.68;;;;;;;9.10;89.14;98870.31;5082162;28;20618;-87
2022/10/12 02:54:33;;;;;;;17.95;11.55;;;;;;;9.01;88.50;98864.31;5071904;28;20040;-87
2022/10/12 02:56:58;;;;;;;21.17;11.13;;;;;;;8.83;88.59;98861.94;5076282;28;20028;-87
2022/10/12 02:59:24;;;;;;;23.05;12.30;;;;;;;8.71;89.38;98854.63;5071918;28;20135;-87
2022/10/12 03:01:49;;;;;;;16.88;10.45;;;;;;;8.81;89.44;98870.94;5085274;28;20056;-87
2022/10/12 03:04:15;;;;;;;17.55;10.60;;;;;;;8.85;88.66;98854.72;5089593;28;20506;-87
2022/10/12 03:06:43;;;;;;;20.17;10.57;;;;;;;8.96;88.29;98855.34;5093446;28;20046;-87
2022/10/12 03:09:09;;;;;;;17.63;10.43;;;;;;;8.89;87.44;98872.72;5092995;28;20032;-87
2022/10/12 03:11:36;;;;;;;16.00;10.18;;;;;;;8.62;87.90;98868.72;5099531;28;20055;-87
2022/10/12 03:14:03;;;;;;;18.70;10.63;;;;;;;8.64;88.29;98866.75;5074479;28;20090;-87
2022/10/12 03:16:29;;;;;;;17.77;10.40;;;;;;;8.56;88.04;98870.19;5092066;28;20050;-87
2022/10/12 03:18:54;;;;;;;17.00;11.15;;;;;;;8.47;88.54;98861.56;5083567;28;20039;-87
2022/10/12 03:21:20;;;;;;;18.65;10.15;;;;;;;8.47;89.18;98861.56;5080683;28;20032;-85
2022/10/12 03:23:46;;;;;;;17.23;10.43;;;;;;;8.47;88.54;98850.31;5076678;28;20482;-86
2022/10/12 03:26:12;;;;;;;20.10;9.88;;;;;;;8.56;88.57;98859.72;5085486;28;20048;-86
2022/10/12 03:28:37;;;;;;;15.05;9.98;;;;;;;8.54;88.45;98843.41;5086562;28;20040;-85
2022/10/12 03:31:03;;;;;;;17.45;10.60;;;;;;;8.62;88.51;98858.25;5090148;28;20032;-86
2022/10/12 03:33:28;;;;;;;18.08;10.80;;;;;;;8.61;88.49;98844.38;5087136;28;20402;-86
2022/10/12 03:35:55;;;;;;;15.32;10.73;;;;;;;8.52;89.01;98850.63;5083857;28;20028;-87
2022/10/12 03:38:20;;;;;;;19.95;11.27;;;;;;;8.50;89.83;98850.75;5074420;28;20097;-87
2022/10/12 03:40:46;;;;;;;22.13;11.93;;;;;;;8.40;90.91;98844.13;5078733;28;20032;-86
2022/10/12 03:43:12;;;;;;;18.50;10.70;;;;;;;8.36;90.99;98853.25;5107054;28;20035;-87
2022/10/12 03:45:38;;;;;;;20.05;11.13;;;;;;;8.33;91.50;98851.75;5082682;28;20032;-86
2022/10/12 03:48:05;;;;;;;19.58;10.93;;;;;;;8.27;91.97;98850.63;5074892;28;20048;-86
2022/10/12 03:50:36;;;;;;;18.95;11.57;;;;;;;8.32;92.27;98850.94;5085704;28;20051;-85
2022/10/12 03:53:04;;;;;;;20.60;11.05;;;;;;;8.35;91.94;98851.59;5075874;28;20028;-85
2022/10/12 03:55:30;;;;;;;18.67;11.43;;;;;;;8.39;91.47;98847.69;5080316;28;20037;-86
2022/10/12 03:57:56;;;;;;;18.40;10.57;;;;;;;8.41;91.08;98837.91;5084416;28;20051;-86
2022/10/12 04:00:22;;;;;;;18.92;11.02;;;;;;;8.32;91.26;98847.50;5076902;28;20427;-86
2022/10/12 04:02:47;;;;;;;17.98;10.52;;;;;;;8.21;91.89;98851.28;5080272;28;20101;-87
2022/10/12 04:05:13;;;;;;;19.38;10.82;;;;;;;8.17;91.78;98857.84;5088709;28;20032;-86
2022/10/12 04:07:38;;;;;;;16.45;9.52;;;;;;;8.14;91.77;98852.13;5098879;28;20041;-86
2022/10/12 04:10:06;;;;;;;22.48;10.82;;;;;;;8.22;91.94;98862.56;5077880;28;20036;-86
2022/10/12 04:12:31;;;;;;;19.63;10.98;;;;;;;8.26;91.54;98858.63;5084075;28;20031;-86
2022/10/12 04:14:57;;;;;;;19.80;9.68;;;;;;;8.26;91.25;98848.16;5082598;28;20037;-87
2022/10/12 04:17:22;;;;;;;17.90;10.93;;;;;;;8.27;90.94;98834.94;5079772;28;20036;-86
2022/10/12 04:19:48;;;;;;;16.85;9.85;;;;;;;8.21;90.90;98838.22;5081281;28;20075;-85
2022/10/12 04:22:13;;;;;;;18.88;10.45;;;;;;;8.12;91.35;98841.03;5076920;28;20044;-85
2022/10/12 04:24:39;;;;;;;17.10;10.60;;;;;;;8.05;92.28;98840.88;5087139;28;20035;-86
2022/10/12 04:27:04;;;;;;;19.65;10.98;;;;;;;8.13;92.03;98846.06;5084619;28;20034;-86
2022/10/12 04:29:30;;;;;;;16.02;10.45;;;;;;;8.10;92.06;98849.03;5102283;28;20036;-86
2022/10/12 04:31:55;;;;;;;15.98;10.25;;;;;;;8.21;91.77;98851.28;5086168;28;20036;-85
2022/10/12 04:34:21;;;;;;;19.85;10.43;;;;;;;8.23;91.20;98844.09;5081111;28;20037;-85
2022/10/12 04:36:46;;;;;;;19.38;10.02;;;;;;;8.15;91.49;98843.28;5087983;28;20535;-85
2022/10/12 04:39:12;;;;;;;19.13;10.75;;;;;;;8.12;91.55;98841.03;5088598;28;20071;-85
2022/10/12 04:41:38;;;;;;;18.70;10.77;;;;;;;8.14;92.00;98850.31;5083352;28;20047;-85
2022/10/12 04:44:05;;;;;;;18.40;10.48;;;;;;;8.39;91.81;98858.13;5088482;28;20035;-84
2022/10/12 04:46:31;;;;;;;20.17;10.75;;;;;;;8.52;91.48;98868.91;5088608;28;20036;-85
2022/10/12 04:48:57;;;;;;;15.10;10.07;;;;;;;8.69;91.27;98862.63;5086243;28;20048;-85
2022/10/12 04:51:22;;;;;;;17.27;9.98;;;;;;;8.84;90.04;98863.56;5085179;28;20130;-85
2022/10/12 04:53:48;;;;;;;18.83;8.95;;;;;;;8.92;88.40;98867.94;5089651;28;20384;-85
2022/10/12 04:56:13;;;;;;;17.33;10.00;;;;;;;8.99;88.02;98871.50;5086574;28;20041;-84
2022/10/12 04:58:39;;;;;;;14.25;9.32;;;;;;;8.97;86.63;98862.22;5088312;28;20039;-85
2022/10/12 05:01:05;;;;;;;15.13;9.77;;;;;;;8.98;85.78;98869.06;5086200;28;20031;-85
2022/10/12 05:03:30;;;;;;;17.98;9.40;;;;;;;8.88;85.38;98858.81;5084647;28;20072;-84
2022/10/12 05:05:56;;;;;;;13.73;9.57;;;;;;;8.87;85.30;98859.78;5085857;28;20036;-85
2022/10/12 05:08:21;;;;;;;14.88;8.70;;;;;;;8.68;83.90;98865.41;5086187;28;20037;-85
2022/10/12 05:10:46;;;;;;;12.18;8.98;;;;;;;8.43;84.37;98865.50;5084316;28;20036;-85
2022/10/12 05:13:13;;;;;;;15.20;10.05;;;;;;;8.16;84.97;98864.06;5083192;28;20106;-85
2022/10/12 05:15:41;;;;;;;20.75;9.88;;;;;;;8.07;85.78;98875.47;5086716;28;20407;-84
2022/10/12 05:18:06;;;;;;;17.73;9.45;;;;;;;7.93;86.78;98870.91;5085116;28;20085;-84
2022/10/12 05:20:32;;;;;;;15.15;9.68;;;;;;;7.84;86.75;98879.72;5087686;28;20483;-85
2022/10/12 05:22:57;;;;;;;20.25;9.57;;;;;;;7.85;87.16;98876.13;5083814;28;20046;-85
2022/10/12 05:25:23;;;;;;;16.10;10.07;;;;;;;7.76;87.21;98878.75;5084091;28;20408;-85
2022/10/12 05:27:49;;;;;;;17.88;10.57;;;;;;;7.82;87.28;98872.06;5091030;28;20093;-85
2022/10/12 05:30:15;;;;;;;17.05;10.30;;;;;;;7.83;86.94;98878.91;5087620;28;20028;-85
2022/10/12 05:32:43;;;;;;;15.98;10.05;;;;;;;7.71;87.26;98883.63;5084291;28;20053;-84
2022/10/12 05:35:09;;;;;;;16.13;9.82;;;;;;;7.66;87.18;98877.25;5085633;28;20039;-85
2022/10/12 05:37:35;;;;;;;18.98;10.20;;;;;;;7.69;87.56;98867.31;5086614;28;20043;-85
2022/10/12 05:40:01;;;;;;;16.63;10.20;;;;;;;7.70;87.12;98870.75;5085263;28;20039;-85
2022/10/12 05:42:27;;;;;;;14.20;10.05;;;;;;;7.68;87.03;98870.91;5087586;28;20032;-85
2022/10/12 05:44:52;;;;;;;16.95;9.73;;;;;;;7.76;86.75;98881.34;5083714;28;20064;-85
2022/10/12 05:47:18;;;;;;;16.77;9.48;;;;;;;7.87;87.14;98887.25;5084477;28;20625;-84
2022/10/12 05:49:43;;;;;;;16.38;9.18;;;;;;;7.95;86.29;98882.00;5084370;28;20040;-85
2022/10/12 05:52:08;;;;;;;17.08;9.40;;;;;;;8.04;86.26;98881.84;5075251;28;20028;-84
2022/10/12 05:54:34;;;;;;;16.73;9.15;;;;;;;7.99;85.20;98878.91;5083545;28;20063;-84
2022/10/12 05:56:59;;;;;;;14.45;9.48;;;;;;;8.11;85.71;98891.66;5080373;28;20024;-84
2022/10/12 05:59:25;;;;;;;16.38;9.32;;;;;;;8.20;85.87;98880.19;5082575;28;20032;-85
2022/10/12 06:01:50;;;;;;;23.05;9.75;;;;;;;8.48;87.03;98883.28;5080648;28;20093;-84
2022/10/12 06:04:16;;;;;;;17.13;9.52;;;;;;;8.66;86.23;98889.13;5082540;28;20053;-85
2022/10/12 06:06:42;;;;;;;19.23;9.48;;;;;;;8.76;84.86;98892.38;5078035;28;20037;-85
2022/10/12 06:09:09;;;;;;;15.48;9.30;;;;;;;8.77;83.95;98873.09;5073674;28;20054;-84
2022/10/12 06:11:34;;;;;;;14.00;9.18;;;;;;;8.80;83.45;98887.59;5080299;28;20040;-84
2022/10/12 06:13:59;;;;;;;14.10;9.13;;;;;;;9.01;83.82;98887.06;5079075;28;20064;-84
2022/10/12 06:16:25;;;;;;;14.38;9.38;;;;;;;9.02;82.61;98878.22;5081560;28;20111;-85
2022/10/12 06:18:51;;;;;;;11.80;9.02;;;;;;;9.13;82.19;98888.31;5081286;28;20067;-84
2022/10/12 06:21:17;;;;;;;16.30;8.68;;;;;;;9.08;81.41;98891.44;5080629;28;20035;-84
2022/10/12 06:23:42;;;;;;;11.77;8.90;;;;;;;8.88;81.27;98892.84;5081826;28;20597;-85
2022/10/12 06:26:08;;;;;;;12.95;8.98;;;;;;;9.02;82.99;98886.88;5082793;28;20492;-85
2022/10/12 06:28:33;;;;;;;11.73;8.90;;;;;;;9.22;83.51;98897.72;5081379;28;20375;-85
2022/10/12 06:30:59;;;;;;;14.75;9.15;;;;;;;9.38;83.37;98887.19;5080358;28;20036;-85
2022/10/12 06:33:27;;;;;;;12.77;8.85;;;;;;;9.41;82.40;98896.50;5084452;28;20040;-84
2022/10/12 06:35:53;;;;;;;13.52;9.55;;;;;;;9.25;82.61;98897.41;5084340;28;20032;-84
2022/10/12 06:38:20;;;;;;;13.48;10.07;;;;;;;9.18;81.44;98893.03;5087782;28;20067;-84
2022/10/12 06:40:46;;;;;;;15.25;9.05;;;;;;;9.02;81.21;98901.75;5084058;28;20028;-84
2022/10/12 06:43:12;;;;;;;17.00;9.50;;;;;;;9.08;82.53;98883.59;5084929;28;20380;-87
2022/10/12 06:45:39;;;;;;;22.42;9.73;;;;;;;9.27;82.55;98895.44;5090629;28;20483;-88
2022/10/12 06:48:06;;;;;;;13.73;8.75;;;;;;;9.38;81.58;98891.63;5086541;28;20065;-88
2022/10/12 06:50:32;;;;;;;13.45;8.88;;;;;;;9.46;80.38;98909.06;5084887;28;20121;-88
2022/10/12 06:52:58;;;;;;;14.75;9.18;;;;;;;9.44;81.24;98904.00;5082976;28;20039;-88
2022/10/12 06:55:24;;;;;;;16.40;9.68;;;;;;;9.24;80.90;98901.03;5075278;28;20032;-88
2022/10/12 06:57:50;;;;;;;15.63;9.48;;;;;;;9.21;81.79;98898.72;5088214;28;20483;-88
2022/10/12 07:00:16;;;;;;;17.30;9.32;;;;;;;9.18;82.51;98909.56;5092803;28;20085;-87
2022/10/12 07:02:42;;;;;;;13.15;9.55;;;;;;;9.26;82.04;98904.28;5090721;28;20040;-88
2022/10/12 07:05:08;;;;;;;16.83;9.65;;;;;;;9.35;82.51;98913.69;5090688;28;20144;-88
2022/10/12 07:07:35;;;;;;;11.18;9.35;;;;;;;9.52;83.14;98921.47;5093432;28;20028;-88
2022/10/12 07:10:04;;;;;;;13.75;8.82;;;;;;;9.50;81.45;98915.59;5090025;28;20036;-88
2022/10/12 07:12:37;;;;;;;17.23;9.68;;;;;;;9.45;81.04;98916.13;5078059;28;20619;-88
2022/10/12 07:15:05;;;;;;;14.13;9.23;;;;;;;9.46;81.31;98916.94;5088213;28;20029;-88
2022/10/12 07:17:32;;;;;;;12.98;9.20;;;;;;;9.49;80.88;98924.44;5081481;28;20051;-88
2022/10/12 07:19:58;;;;;;;16.63;10.13;;;;;;;9.42;80.66;98924.31;5078231;28;20627;-87
2022/10/12 07:22:23;;;;;;;14.05;10.02;;;;;;;9.49;82.02;98925.25;5084625;28;20568;-88
2022/10/12 07:24:49;;;;;;;13.82;9.68;;;;;;;9.42;81.35;98915.66;5077643;28;20067;-88
2022/10/12 07:27:14;;;;;;;14.63;10.02;;;;;;;9.59;81.73;98919.78;5085947;28;20052;-88
2022/10/12 07:29:41;;;;;;;16.35;9.07;;;;;;;9.62;81.06;98924.69;5086431;28;20031;-88
2022/10/12 07:32:07;;;;;;;22.55;9.95;;;;;;;9.62;81.05;98922.06;5090410;28;20028;-87
2022/10/12 07:34:33;;;;;;;14.98;9.82;;;;;;;9.66;80.97;98920.75;5082832;28;20071;-88
2022/10/12 07:36:59;;;;;;;21.23;10.93;;;;;;;9.72;80.80;98921.88;5083365;28;20089;-86
2022/10/12 07:39:25;;;;;;;16.42;10.13;;;;;;;9.71;80.79;98928.88;5082111;28;20040;-88
2022/10/12 07:41:52;;;;;;;14.85;9.75;;;;;;;9.75;81.55;98930.19;5079856;28;20084;-84
2022/10/12 07:44:19;;;;;;;17.00;10.57;;;;;;;9.56;81.21;98936.69;5081473;28;20036;-84
2022/10/12 07:46:45;;;;;;;17.15;10.25;;;;;;;9.59;82.38;98925.03;5082214;28;20040;-84
2022/10/12 07:49:13;;;;;;;13.43;9.32;;;;;;;9.80;81.73;98930.47;5083704;28;20031;-84
2022/10/12 07:51:41;;;;;;;15.00;10.13;;;;;;;9.96;80.67;98932.16;5084254;28;20526;-85
2022/10/12 07:54:13;;;;;;;13.88;9.80;;;;;;;10.21;80.70;98927.56;5079856;28;20024;-84
2022/10/12 07:56:40;;;;;;;16.73;10.18;;;;;;;10.30;81.83;98923.88;5078842;28;20040;-84
2022/10/12 07:59:05;;;;;;;15.35;10.00;;;;;;;10.43;80.27;98929.34;5083574;28;20137;-84
2022/10/12 08:01:32;;;;;;;17.13;9.27;;;;;;;10.45;78.64;98924.75;5087391;28;20051;-85
2022/10/12 08:03:59;;;;;;;19.00;10.27;;;;;;;10.32;78.51;98924.53;5085367;28;20489;-84
2022/10/12 08:06:30;;;;;;;16.30;10.25;;;;;;;10.40;79.21;98919.22;5087765;28;20036;-85
2022/10/12 08:08:56;;;;;;;;;;;;;;;10.78;79.40;98927.03;5085525;28;20033;-84
2022/10/12 08:11:22;;;;;;;14.48;9.60;;;;;;;10.97;77.78;98928.28;5070935;28;19934;-89
2022/10/12 08:13:48;;;;;;;13.73;9.57;;;;;;;11.16;77.68;98927.75;5085026;28;20499;-88
2022/10/12 08:16:18;;;;;;;16.77;10.15;;;;;;;11.16;77.50;98924.31;5094473;28;20115;-89
2022/10/12 08:18:43;;;;;;;16.58;10.43;;;;;;;11.04;77.26;98916.09;5092892;28;20043;-87
2022/10/12 08:21:12;;;;;;;14.18;9.82;;;;;;;11.07;77.27;98926.22;5095131;28;20044;-89
2022/10/12 08:23:38;;;;;;;17.25;10.20;;;;;;;11.16;76.98;98921.69;5086531;28;20032;-88
2022/10/12 08:26:05;;;;;;;15.85;10.48;;;;;;;11.09;78.00;98912.91;5082957;28;20567;-88
2022/10/12 08:28:32;;;;;;;17.38;9.85;;;;;;;11.21;77.30;98907.00;5087407;28;20105;-88
2022/10/12 08:30:57;;;;;;;17.92;10.57;;;;;;;11.52;77.86;98919.91;5075744;28;20040;-89
2022/10/12 08:33:23;;;;;;;15.38;10.75;;;;;;;11.99;77.16;98908.03;5074520;28;20097;-89
2022/10/12 08:35:48;;;;;;;16.92;10.80;;;;;;;12.32;75.91;98892.56;5093669;28;20060;-88
2022/10/12 08:38:15;;;;;;;17.88;10.63;;;;;;;12.32;72.87;98897.00;5088231;28;20208;-88
2022/10/12 08:40:52;;;;;;;17.20;10.00;;;;;;;12.56;73.54;98907.09;5074606;28;20036;-89
2022/10/12 08:43:52;;;;;;;14.75;10.40;;;;;;;12.73;73.36;98896.25;5075105;28;20479;-88
2022/10/12 08:46:21;;;;;;;13.93;10.13;;;;;;;12.94;72.02;98898.78;5088101;28;20060;-90
2022/10/12 08:49:25;;;;;;;14.73;10.30;;;;;;;12.97;71.92;98885.25;5093991;28;20296;-86
2022/10/12 08:51:58;;;;;;;17.10;10.43;;;;;;;13.19;73.78;98890.41;5048328;28;20082;-88
2022/10/12 08:54:34;;;;;;;18.08;11.45;;;;;;;13.40;74.26;98892.94;5095272;28;20032;-88
2022/10/12 08:57:00;;;;;;;16.13;10.77;;;;;;;13.57;72.90;98883.66;5079104;28;20040;-87
2022/10/12 08:59:28;;;;;;;15.30;10.25;;;;;;;13.72;71.50;98887.94;5074177;28;20062;-88
2022/10/12 09:02:12;;;;;;;14.73;10.50;;;;;;;13.56;70.90;98883.88;5091119;28;20515;-87
2022/10/12 09:04:49;;;;;;;14.63;10.68;;;;;;;13.67;70.79;98883.25;5092556;28;20062;-87
2022/10/12 09:07:15;;;;;;;17.52;11.18;;;;;;;13.79;72.61;98884.28;5074312;28;20044;-88
2022/10/12 09:10:14;;;;;;;15.93;10.27;;;;;;;13.73;70.55;98886.94;5074659;28;20041;-84
2022/10/12 09:12:54;;;;;;;12.65;10.15;;;;;;;13.78;70.68;98895.06;5085106;28;20499;-83
2022/10/12 09:16:23;;;;;;;15.23;10.13;;;;;;;13.93;73.40;98887.78;5082174;28;20040;-84
2022/10/12 09:18:56;;;;;;;15.48;9.95;;;;;;;14.23;71.48;98887.38;5078464;28;20068;-83
2022/10/12 09:21:28;;;;;;;15.60;9.88;;;;;;;14.41;71.30;98898.94;5089603;28;20034;-84
2022/10/12 09:23:56;;;;;;;15.27;9.98;;;;;;;14.45;69.72;98891.41;5090238;28;20081;-83
2022/10/12 09:26:38;;;;;;;13.93;10.07;;;;;;;14.57;69.64;98895.06;5088693;28;20388;-84
2022/10/12 09:29:29;;;;;;;18.70;11.13;;;;;;;14.65;70.47;98886.97;5088636;28;20032;-83
2022/10/12 09:32:20;;;;;;;;;;;;;;;14.69;69.31;98896.09;5085624;28;20024;-84
2022/10/12 09:34:49;;;;;;;13.98;9.75;;;;;;;14.94;69.51;98898.06;5069931;28;19992;-83
2022/10/12 09:37:21;;;;;;;12.90;10.43;;;;;;;14.86;69.31;98898.28;5087640;28;20036;-83
2022/10/12 09:39:48;;;;;;;16.58;9.85;;;;;;;15.05;69.61;98900.03;5084211;28;20032;-84
2022/10/12 09:42:13;;;;;;;13.63;9.90;;;;;;;15.25;69.85;98892.88;5088296;28;20028;-83
2022/10/12 09:45:00;;;;;;;14.60;9.75;;;;;;;15.22;68.99;98880.06;5087695;28;20029;-83
2022/10/12 09:47:32;;;;;;;19.77;9.95;;;;;;;15.25;68.47;98887.56;5082782;28;20039;-84
2022/10/12 09:50:01;;;;;;;18.13;10.98;;;;;;;15.35;68.71;98891.59;5085548;28;20028;-84
2022/10/12 09:52:28;;;;;;;16.42;9.95;;;;;;;15.49;69.19;98880.75;5086618;28;20084;-83
2022/10/12 09:55:25;;;;;;;17.08;11.10;;;;;;;15.46;67.98;98883.00;5084797;28;20040;-84
2022/10/12 09:57:58;;;;;;;16.83;9.55;;;;;;;15.51;68.15;98872.59;5075964;28;20035;-84
2022/10/12 10:00:33;;;;;;;14.40;10.15;;;;;;;15.67;68.97;98872.13;5084873;28;20044;-84
2022/10/12 10:03:01;;;;;;;17.67;10.23;;;;;;;15.64;67.65;98863.81;5083725;28;20059;-83
2022/10/12 10:05:35;;;;;;;18.23;10.45;;;;;;;15.75;68.13;98869.22;5084597;28;20032;-84
2022/10/12 10:08:13;;;;;;;15.77;11.02;;;;;;;15.83;66.64;98868.13;5085529;28;20141;-84
2022/10/12 10:10:54;;;;;;;16.00;10.95;;;;;;;15.84;67.01;98868.97;5082057;28;20040;-83
2022/10/12 10:13:27;;;;;;;21.73;10.57;;;;;;;15.90;67.24;98873.41;5082611;28;20055;-84
2022/10/12 10:16:06;;;;;;;16.02;11.02;;;;;;;15.84;67.19;98872.44;5078942;28;20033;-83
2022/10/12 10:18:46;;;;;;;15.10;9.80;;;;;;;16.00;68.47;98869.25;5080092;28;20040;-83
2022/10/12 10:21:16;;;;;;;18.70;10.48;;;;;;;16.02;67.10;98871.69;5080011;28;20494;-83
2022/10/12 10:24:02;;;;;;;15.18;10.35;;;;;;;16.23;67.44;98878.44;5081426;28;20527;-83
2022/10/12 10:29:24;;;;;;;14.53;10.83;;;;;;;16.51;65.58;98880.63;5079567;28;20437;-83
2022/10/12 10:32:27;;;;;;;16.30;10.02;;;;;;;16.62;65.45;98887.84;5076199;28;20039;-83
2022/10/12 10:35:11;;;;;;;14.68;9.88;;;;;;;16.48;67.18;98887.16;5076881;28;20656;-83
2022/10/12 10:37:50;;;;;;;15.52;10.57;;;;;;;16.55;64.99;98879.97;5079891;28;20032;-88
2022/10/12 10:40:30;;;;;;;15.57;10.38;;;;;;;16.54;66.64;98874.88;5088111;28;20058;-88
2022/10/12 10:43:26;;;;;;;16.73;11.70;;;;;;;16.58;66.46;98876.06;5084732;28;20032;-88
2022/10/12 10:45:58;;;;;;;16.85;10.55;;;;;;;16.65;66.80;98862.75;5079551;28;20502;-88
2022/10/12 10:48:30;;;;;;;13.48;10.52;;;;;;;16.74;65.95;98872.06;5087664;28;20495;-87
2022/10/12 10:51:04;;;;;;;19.30;10.70;;;;;;;16.68;65.83;98876.38;5085757;28;20332;-88
2022/10/12 10:53:43;;;;;;;17.63;11.70;;;;;;;16.83;66.91;98868.91;5083559;28;20060;-88
2022/10/12 10:56:33;;;;;;;17.40;10.82;;;;;;;16.84;67.13;98867.84;5075500;28;20537;-87
2022/10/12 10:59:15;;;;;;;18.83;11.55;;;;;;;16.90;66.64;98873.31;5076906;28;20023;-88
2022/10/12 11:01:56;;;;;;;16.77;11.82;;;;;;;16.93;65.24;98875.53;5074929;28;20247;-88
2022/10/12 11:04:32;;;;;;;15.40;11.23;;;;;;;17.19;66.69;98867.25;5075756;28;20373;-87
2022/10/12 11:07:20;;;;;;;19.88;12.10;;;;;;;17.23;66.50;98863.13;5074524;28;20039;-88
2022/10/12 11:09:53;;;;;;;19.02;12.75;;;;;;;17.33;63.92;98863.41;5077370;28;20371;-87
2022/10/12 11:12:39;;;;;;;15.98;11.35;;;;;;;17.45;65.28;98866.06;5077195;28;20040;-86
2022/10/12 11:15:49;;;;;;;18.73;12.15;;;;;;;17.51;64.46;98859.91;5075217;28;20036;-87
2022/10/12 11:18:32;;;;;;;20.33;12.88;;;;;;;17.49;62.98;98850.53;5079556;28;20028;-87
2022/10/12 11:21:08;;;;;;;22.90;12.57;;;;;;;17.54;64.52;98854.13;5088267;28;20036;-87
2022/10/12 11:23:48;;;;;;;20.02;12.13;;;;;;;17.35;65.30;98857.88;5080107;28;20368;-87
2022/10/12 11:26:35;;;;;;;18.67;13.23;;;;;;;17.25;65.71;98855.75;5084754;28;20503;-86
2022/10/12 11:29:02;;;;;;;21.90;13.00;;;;;;;17.39;65.08;98851.91;5082802;28;20074;-86
2022/10/12 11:31:41;;;;;;;23.35;12.15;;;;;;;17.27;65.20;98843.09;5087432;28;20032;-86
2022/10/12 11:34:17;;;;;;;18.70;12.93;;;;;;;17.36;64.62;98836.44;5082406;28;20028;-88
2022/10/12 11:36:48;;;;;;;18.23;11.82;;;;;;;17.60;65.04;98834.66;5084442;28;20043;-88
2022/10/12 11:39:36;;;;;;;19.02;12.35;;;;;;;17.77;65.71;98837.50;5088069;28;20127;-88
2022/10/12 11:42:10;;;;;;;18.27;11.93;;;;;;;17.86;64.88;98825.50;5086035;28;20032;-88
2022/10/12 11:44:46;;;;;;;21.05;12.57;;;;;;;18.01;64.49;98832.22;5080632;28;20064;-83
2022/10/12 11:47:38;;;;;;;15.80;12.25;;;;;;;18.21;63.12;98832.69;5083126;28;20036;-83
2022/10/12 11:50:34;;;;;;;21.10;12.52;;;;;;;18.34;65.15;98832.47;5079150;28;20024;-83